createdAt,value
2018-07-07T00:00:20.694Z,19.30
2018-07-07T00:02:49.086Z,19.20
2018-07-07T00:05:17.505Z,19.20
2018-07-07T00:07:45.916Z,19.20
2018-07-07T00:10:15.737Z,19.20
2018-07-07T00:12:44.409Z,19.10
2018-07-07T00:15:14.490Z,19.10
2018-07-07T00:17:43.109Z,19.10
2018-07-07T00:20:11.517Z,19.10
2018-07-07T00:22:39.957Z,19.00
2018-07-07T00:25:13.812Z,19.00
2018-07-07T00:30:10.305Z,19.00
2018-07-07T00:32:38.757Z,19.00
2018-07-07T00:35:07.190Z,19.00
2018-07-07T00:37:35.579Z,19.00
2018-07-07T00:40:04.288Z,18.90
2018-07-07T00:42:32.670Z,18.90
2018-07-07T00:45:01.137Z,18.90
2018-07-07T00:47:29.550Z,18.90
2018-07-07T00:49:57.961Z,18.90
2018-07-07T00:52:26.373Z,18.90
2018-07-07T00:54:54.803Z,18.80
2018-07-07T00:57:23.389Z,18.80
2018-07-07T00:59:52.524Z,18.80
2018-07-07T01:02:22.252Z,18.80
2018-07-07T01:04:52.825Z,18.80
2018-07-07T01:07:21.721Z,18.80
2018-07-07T01:09:50.146Z,18.80
2018-07-07T01:12:18.733Z,18.80
2018-07-07T01:14:47.466Z,18.70
2018-07-07T01:17:16.077Z,18.70
2018-07-07T01:19:44.453Z,18.70
2018-07-07T01:22:13.581Z,18.70
2018-07-07T01:24:42.514Z,18.70
2018-07-07T01:27:10.917Z,18.70
2018-07-07T01:29:40.250Z,18.70
2018-07-07T01:32:08.614Z,18.70
2018-07-07T01:34:37.160Z,18.70
2018-07-07T01:37:05.872Z,18.70
2018-07-07T01:39:34.301Z,18.70
2018-07-07T01:42:02.682Z,18.70
2018-07-07T01:44:31.076Z,18.70
2018-07-07T01:46:59.441Z,18.70
2018-07-07T01:51:56.073Z,18.70
2018-07-07T01:54:24.430Z,18.70
2018-07-07T01:56:52.801Z,18.70
2018-07-07T01:59:21.169Z,18.70
2018-07-07T02:01:49.520Z,18.70
2018-07-07T02:04:18.425Z,18.70
2018-07-07T02:06:46.800Z,18.70
2018-07-07T02:11:43.625Z,18.70
2018-07-07T02:14:11.985Z,18.70
2018-07-07T02:16:40.325Z,18.70
2018-07-07T02:19:08.697Z,18.70
2018-07-07T02:21:37.034Z,18.60
2018-07-07T02:24:05.645Z,18.60
2018-07-07T02:26:33.998Z,18.60
2018-07-07T02:29:02.392Z,18.50
2018-07-07T02:31:31.151Z,18.50
2018-07-07T02:33:59.542Z,18.50
2018-07-07T02:36:27.896Z,18.40
2018-07-07T02:38:56.286Z,18.30
2018-07-07T02:41:24.654Z,18.20
2018-07-07T02:43:53.038Z,18.20
2018-07-07T02:46:21.470Z,18.20
2018-07-07T02:48:49.782Z,18.20
2018-07-07T02:51:18.148Z,18.30
2018-07-07T02:53:46.510Z,18.30
2018-07-07T02:56:14.842Z,18.30
2018-07-07T02:58:43.205Z,18.30
2018-07-07T03:01:11.529Z,18.20
2018-07-07T03:03:39.879Z,18.30
2018-07-07T03:08:36.293Z,18.30
2018-07-07T03:11:04.713Z,18.30
2018-07-07T03:13:33.049Z,18.30
2018-07-07T03:16:01.410Z,18.30
2018-07-07T03:18:29.784Z,18.40
2018-07-07T03:20:58.159Z,18.40
2018-07-07T03:23:26.498Z,18.40
2018-07-07T03:25:54.854Z,18.30
2018-07-07T03:28:23.201Z,18.30
2018-07-07T03:30:51.576Z,18.30
2018-07-07T03:33:19.901Z,18.30
2018-07-07T03:35:48.250Z,18.30
2018-07-07T03:38:16.593Z,18.30
2018-07-07T03:40:44.945Z,18.40
2018-07-07T03:43:13.294Z,18.30
2018-07-07T03:45:41.677Z,18.30
2018-07-07T03:48:10.038Z,18.20
2018-07-07T03:50:38.429Z,18.20
2018-07-07T03:53:06.822Z,18.10
2018-07-07T03:55:35.226Z,18.00
2018-07-07T03:58:03.651Z,18.00
2018-07-07T04:00:32.042Z,17.90
2018-07-07T04:03:00.409Z,17.90
2018-07-07T04:05:28.806Z,17.90
2018-07-07T04:07:57.153Z,17.90
2018-07-07T04:10:25.521Z,17.90
2018-07-07T04:12:53.884Z,17.90
2018-07-07T04:15:22.245Z,17.90
2018-07-07T04:17:50.718Z,18.00
2018-07-07T04:20:19.077Z,17.90
2018-07-07T04:22:47.425Z,17.90
2018-07-07T04:25:15.814Z,17.90
2018-07-07T04:27:44.198Z,17.90
2018-07-07T04:30:12.585Z,18.00
2018-07-07T04:32:40.923Z,18.00
2018-07-07T04:35:09.309Z,18.10
2018-07-07T04:37:37.649Z,18.10
2018-07-07T04:40:06.118Z,18.20
2018-07-07T04:42:34.489Z,18.20
2018-07-07T04:45:02.865Z,18.30
2018-07-07T04:47:31.269Z,18.30
2018-07-07T04:49:59.626Z,18.30
2018-07-07T04:52:28.018Z,18.30
2018-07-07T04:54:56.361Z,18.30
2018-07-07T04:57:24.754Z,18.30
2018-07-07T04:59:53.118Z,18.20
2018-07-07T05:02:21.449Z,18.20
2018-07-07T05:04:49.769Z,18.20
2018-07-07T05:07:18.128Z,18.30
2018-07-07T05:09:46.465Z,18.30
2018-07-07T05:12:14.851Z,18.40
2018-07-07T05:14:43.177Z,18.40
2018-07-07T05:17:11.542Z,18.40
2018-07-07T05:19:40.056Z,18.40
2018-07-07T05:22:08.495Z,18.30
2018-07-07T05:24:36.825Z,18.40
2018-07-07T05:27:05.177Z,18.40
2018-07-07T05:29:35.021Z,18.40
2018-07-07T05:32:03.451Z,18.40
2018-07-07T05:34:31.765Z,18.50
2018-07-07T05:37:00.150Z,18.60
2018-07-07T05:39:28.486Z,18.70
2018-07-07T05:41:56.846Z,18.80
2018-07-07T05:44:25.175Z,18.80
2018-07-07T05:46:53.569Z,18.90
2018-07-07T05:49:21.909Z,18.90
2018-07-07T05:51:50.258Z,19.00
2018-07-07T05:54:18.578Z,19.10
2018-07-07T05:56:46.929Z,19.20
2018-07-07T05:59:15.277Z,19.30
2018-07-07T06:01:43.781Z,19.30
2018-07-07T06:04:12.121Z,19.60
2018-07-07T06:06:40.472Z,19.80
2018-07-07T06:09:08.937Z,19.90
2018-07-07T06:11:37.401Z,20.10
2018-07-07T06:14:05.797Z,20.30
2018-07-07T06:16:34.149Z,20.30
2018-07-07T06:19:02.497Z,20.20
2018-07-07T06:21:30.874Z,20.20
2018-07-07T06:23:59.224Z,20.10
2018-07-07T06:26:27.572Z,20.10
2018-07-07T06:28:55.922Z,20.20
2018-07-07T06:31:24.277Z,20.40
2018-07-07T06:33:52.597Z,20.50
2018-07-07T06:36:20.957Z,20.60
2018-07-07T06:38:49.277Z,20.60
2018-07-07T06:41:17.653Z,20.70
2018-07-07T06:43:46.057Z,20.70
2018-07-07T06:46:14.873Z,20.80
2018-07-07T06:48:43.254Z,20.80
2018-07-07T06:51:11.672Z,20.90
2018-07-07T06:53:40.071Z,21.00
2018-07-07T06:56:08.470Z,21.10
2018-07-07T06:58:36.818Z,21.10
2018-07-07T07:01:05.221Z,21.30
2018-07-07T07:03:33.691Z,21.50
2018-07-07T07:06:02.235Z,21.40
2018-07-07T07:08:30.724Z,21.20
2018-07-07T07:10:59.101Z,21.20
2018-07-07T07:13:27.481Z,21.20
2018-07-07T07:15:55.830Z,21.20
2018-07-07T07:18:25.009Z,21.20
2018-07-07T07:20:53.381Z,21.30
2018-07-07T07:23:21.741Z,21.40
2018-07-07T07:25:50.205Z,21.80
2018-07-07T07:28:18.655Z,22.20
2018-07-07T07:30:47.026Z,22.60
2018-07-07T07:33:15.450Z,23.00
2018-07-07T07:35:43.800Z,23.20
2018-07-07T07:38:12.173Z,23.40
2018-07-07T07:40:40.533Z,23.50
2018-07-07T07:43:09.131Z,23.70
2018-07-07T07:45:37.577Z,24.00
2018-07-07T07:48:05.982Z,24.20
2018-07-07T07:50:34.356Z,24.50
2018-07-07T07:53:02.737Z,24.40
2018-07-07T07:55:31.090Z,24.50
2018-07-07T07:57:59.469Z,24.60
2018-07-07T08:00:27.825Z,24.70
2018-07-07T08:02:56.190Z,24.90
2018-07-07T08:05:24.550Z,25.10
2018-07-07T08:07:52.997Z,25.30
2018-07-07T08:10:21.329Z,25.30
2018-07-07T08:12:49.688Z,25.20
2018-07-07T08:15:18.110Z,25.30
2018-07-07T08:17:46.474Z,25.00
2018-07-07T08:20:14.842Z,25.20
2018-07-07T08:22:43.253Z,25.20
2018-07-07T08:25:11.609Z,24.90
2018-07-07T08:27:39.981Z,25.00
2018-07-07T08:30:08.345Z,25.20
2018-07-07T08:32:36.738Z,25.40
2018-07-07T08:35:05.138Z,25.40
2018-07-07T08:37:33.613Z,25.80
2018-07-07T08:40:02.090Z,26.10
2018-07-07T08:42:30.494Z,26.40
2018-07-07T08:44:58.841Z,26.50
2018-07-07T08:47:27.257Z,26.30
2018-07-07T08:49:55.637Z,26.40
2018-07-07T08:52:23.994Z,26.50
2018-07-07T08:54:52.364Z,26.60
2018-07-07T08:57:20.811Z,26.60
2018-07-07T08:59:49.182Z,26.60
2018-07-07T09:02:17.637Z,26.60
2018-07-07T09:04:46.187Z,26.50
2018-07-07T09:07:14.605Z,26.70
2018-07-07T09:09:42.969Z,26.70
2018-07-07T09:12:11.333Z,26.60
2018-07-07T09:14:39.697Z,26.70
2018-07-07T09:17:08.124Z,26.50
2018-07-07T09:19:36.510Z,26.60
2018-07-07T09:22:04.894Z,26.70
2018-07-07T09:24:33.250Z,26.60
2018-07-07T09:27:01.641Z,26.30
2018-07-07T09:29:30.014Z,26.50
2018-07-07T09:31:58.405Z,26.70
2018-07-07T09:34:26.770Z,26.60
2018-07-07T09:36:55.158Z,26.40
2018-07-07T09:39:23.526Z,26.60
2018-07-07T09:41:51.908Z,26.50
2018-07-07T09:44:20.277Z,26.10
2018-07-07T09:46:48.637Z,25.90
2018-07-07T09:49:17.022Z,25.50
2018-07-07T09:51:45.381Z,25.70
2018-07-07T09:54:13.769Z,25.80
2018-07-07T09:56:42.121Z,25.60
2018-07-07T09:59:10.487Z,26.00
2018-07-07T10:01:38.852Z,26.30
2018-07-07T10:04:07.237Z,26.40
2018-07-07T10:06:35.638Z,26.40
2018-07-07T10:09:04.320Z,26.50
2018-07-07T10:11:32.669Z,26.40
2018-07-07T10:14:01.137Z,26.40
2018-07-07T10:16:29.517Z,26.60
2018-07-07T10:18:57.873Z,26.90
2018-07-07T10:21:26.225Z,27.10
2018-07-07T10:23:55.645Z,26.90
2018-07-07T10:26:24.066Z,27.00
2018-07-07T10:28:52.479Z,27.10
2018-07-07T10:31:20.841Z,27.00
2018-07-07T10:33:49.256Z,26.70
2018-07-07T10:36:17.605Z,26.50
2018-07-07T10:38:46.020Z,26.80
2018-07-07T10:41:14.387Z,27.00
2018-07-07T10:43:44.271Z,27.00
2018-07-07T10:46:12.764Z,26.90
2018-07-07T10:48:41.051Z,26.90
2018-07-07T10:51:09.458Z,26.80
2018-07-07T10:53:37.841Z,26.80
2018-07-07T10:56:06.205Z,26.50
2018-07-07T10:58:34.569Z,26.50
2018-07-07T11:01:03.071Z,26.50
2018-07-07T11:05:59.484Z,26.80
2018-07-07T11:08:27.846Z,27.00
2018-07-07T11:10:56.209Z,27.10
2018-07-07T11:13:24.599Z,27.10
2018-07-07T11:15:52.938Z,26.90
2018-07-07T11:18:21.425Z,26.70
2018-07-07T11:20:49.826Z,26.70
2018-07-07T11:23:18.153Z,26.80
2018-07-07T11:25:46.573Z,26.90
2018-07-07T11:28:14.881Z,26.90
2018-07-07T11:30:43.237Z,26.90
2018-07-07T11:33:11.744Z,27.00
2018-07-07T11:35:40.150Z,26.90
2018-07-07T11:38:08.501Z,26.90
2018-07-07T11:40:36.952Z,27.00
2018-07-07T11:43:05.330Z,27.10
2018-07-07T11:45:33.690Z,27.10
2018-07-07T11:48:02.187Z,27.10
2018-07-07T11:50:30.555Z,27.10
2018-07-07T11:52:58.872Z,27.20
2018-07-07T11:55:27.229Z,27.30
2018-07-07T11:57:55.556Z,27.30
2018-07-07T12:00:23.924Z,27.50
2018-07-07T12:02:52.269Z,27.40
2018-07-07T12:05:20.640Z,27.40
2018-07-07T12:08:00.711Z,27.50
2018-07-07T12:10:17.523Z,27.60
2018-07-07T12:12:45.875Z,27.50
2018-07-07T12:15:14.243Z,27.40
2018-07-07T12:17:42.640Z,27.50
2018-07-07T12:20:11.021Z,27.50
2018-07-07T12:22:39.400Z,27.40
2018-07-07T12:25:07.797Z,27.40
2018-07-07T12:27:36.140Z,27.50
2018-07-07T12:30:04.572Z,27.20
2018-07-07T12:32:33.050Z,27.20
2018-07-07T12:35:01.438Z,27.20
2018-07-07T12:37:29.813Z,27.20
2018-07-07T12:39:58.177Z,27.20
2018-07-07T12:42:26.521Z,27.10
2018-07-07T12:44:54.869Z,27.20
2018-07-07T12:47:23.317Z,27.30
2018-07-07T12:49:51.676Z,27.40
2018-07-07T12:52:20.009Z,27.50
2018-07-07T12:54:48.981Z,27.30
2018-07-07T12:57:17.317Z,27.00
2018-07-07T12:59:45.654Z,26.90
2018-07-07T13:02:13.983Z,26.90
2018-07-07T13:04:42.333Z,27.10
2018-07-07T13:07:10.662Z,27.20
2018-07-07T13:09:39.033Z,27.20
2018-07-07T13:12:07.350Z,27.30
2018-07-07T13:14:35.730Z,27.30
2018-07-07T13:17:04.071Z,27.30
2018-07-07T13:19:32.408Z,27.10
2018-07-07T13:22:00.746Z,27.10
2018-07-07T13:24:29.074Z,27.20
2018-07-07T13:26:57.461Z,27.20
2018-07-07T13:29:26.701Z,27.20
2018-07-07T13:31:55.041Z,27.10
2018-07-07T13:34:23.404Z,27.20
2018-07-07T13:36:51.754Z,27.20
2018-07-07T13:39:20.085Z,27.00
2018-07-07T13:41:48.456Z,26.90
2018-07-07T13:44:16.775Z,27.10
2018-07-07T13:46:45.195Z,27.10
2018-07-07T13:49:13.546Z,27.30
2018-07-07T13:51:42.228Z,27.50
2018-07-07T13:54:10.560Z,27.60
2018-07-07T13:56:38.880Z,27.60
2018-07-07T13:59:07.237Z,27.50
2018-07-07T14:01:35.597Z,27.40
2018-07-07T14:04:03.937Z,27.30
2018-07-07T14:06:32.293Z,27.30
2018-07-07T14:09:00.609Z,27.30
2018-07-07T14:11:28.944Z,27.00
2018-07-07T14:13:57.273Z,26.90
2018-07-07T14:16:25.629Z,26.80
2018-07-07T14:18:53.958Z,26.80
2018-07-07T14:21:22.341Z,26.80
2018-07-07T14:23:50.716Z,26.70
2018-07-07T14:26:19.047Z,26.50
2018-07-07T14:28:47.384Z,26.40
2018-07-07T14:31:15.730Z,26.50
2018-07-07T14:33:44.053Z,26.70
2018-07-07T14:38:40.476Z,27.00
2018-07-07T14:41:12.879Z,27.00
2018-07-07T14:43:55.600Z,27.10
2018-07-07T14:46:24.537Z,27.20
2018-07-07T14:48:52.900Z,27.20
2018-07-07T14:51:21.353Z,27.10
2018-07-07T14:53:49.728Z,27.10
2018-07-07T14:56:19.585Z,27.10
2018-07-07T14:58:48.409Z,27.10
2018-07-07T15:01:16.761Z,27.20
2018-07-07T15:03:45.095Z,27.20
2018-07-07T15:06:13.469Z,27.30
2018-07-07T15:08:41.849Z,27.20
2018-07-07T15:11:17.182Z,27.10
2018-07-07T15:13:47.333Z,27.10
2018-07-07T15:16:15.865Z,27.00
2018-07-07T15:18:44.553Z,27.00
2018-07-07T15:21:13.133Z,26.90
2018-07-07T15:23:41.509Z,26.90
2018-07-07T15:26:09.873Z,26.90
2018-07-07T15:28:38.213Z,26.90
2018-07-07T15:31:06.840Z,27.00
2018-07-07T15:33:35.166Z,26.90
2018-07-07T15:36:03.630Z,26.90
2018-07-07T15:38:32.017Z,26.80
2018-07-07T15:41:00.469Z,26.70
2018-07-07T15:43:29.050Z,26.70
2018-07-07T15:45:57.436Z,26.50
2018-07-07T15:48:25.937Z,26.60
2018-07-07T15:50:54.259Z,26.70
2018-07-07T15:53:22.627Z,26.70
2018-07-07T15:55:51.207Z,26.70
2018-07-07T15:58:19.671Z,26.80
2018-07-07T16:00:47.985Z,26.80
2018-07-07T16:03:16.444Z,26.80
2018-07-07T16:05:44.785Z,26.90
2018-07-07T16:08:13.160Z,26.80
2018-07-07T16:10:41.509Z,26.70
2018-07-07T16:13:10.039Z,26.50
2018-07-07T16:15:38.353Z,26.50
2018-07-07T16:18:06.722Z,26.50
2018-07-07T16:20:35.038Z,26.40
2018-07-07T16:23:03.381Z,26.50
2018-07-07T16:25:31.717Z,26.50
2018-07-07T16:28:00.073Z,26.40
2018-07-07T16:30:28.390Z,26.30
2018-07-07T16:32:56.737Z,26.30
2018-07-07T16:35:25.121Z,26.20
2018-07-07T16:37:53.466Z,26.10
2018-07-07T16:40:21.781Z,26.20
2018-07-07T16:42:50.676Z,26.20
2018-07-07T16:45:19.096Z,26.20
2018-07-07T16:47:47.505Z,26.20
2018-07-07T16:50:15.929Z,26.20
2018-07-07T16:52:44.338Z,26.20
2018-07-07T16:57:41.456Z,26.30
2018-07-07T17:00:09.869Z,26.30
2018-07-07T17:02:38.257Z,26.30
2018-07-07T17:05:06.660Z,26.40
2018-07-07T17:07:35.080Z,26.30
2018-07-07T17:10:03.925Z,26.30
2018-07-07T17:12:32.321Z,26.20
2018-07-07T17:15:01.573Z,26.20
2018-07-07T17:17:29.993Z,26.20
2018-07-07T17:19:58.401Z,26.10
2018-07-07T17:22:26.820Z,26.10
2018-07-07T17:24:55.693Z,26.00
2018-07-07T17:27:24.765Z,26.10
2018-07-07T17:29:53.169Z,26.00
2018-07-07T17:32:21.673Z,26.00
2018-07-07T17:34:50.094Z,25.80
2018-07-07T17:37:18.568Z,25.70
2018-07-07T17:39:46.986Z,25.70
2018-07-07T17:42:15.447Z,25.80
2018-07-07T17:44:43.825Z,25.80
2018-07-07T17:47:12.229Z,25.80
2018-07-07T17:49:40.697Z,25.80
2018-07-07T17:52:09.104Z,25.80
2018-07-07T17:54:37.505Z,25.90
2018-07-07T17:57:05.881Z,25.90
2018-07-07T17:59:34.276Z,25.90
2018-07-07T18:02:02.661Z,25.80
2018-07-07T18:04:31.051Z,25.80
2018-07-07T18:06:59.405Z,25.80
2018-07-07T18:09:27.770Z,25.70
2018-07-07T18:11:56.141Z,25.70
2018-07-07T18:16:52.525Z,25.50
2018-07-07T18:19:20.930Z,25.40
2018-07-07T18:21:49.261Z,25.30
2018-07-07T18:24:17.636Z,25.30
2018-07-07T18:29:14.097Z,25.20
2018-07-07T18:31:42.489Z,25.20
2018-07-07T18:34:10.877Z,25.20
2018-07-07T18:36:39.309Z,25.20
2018-07-07T18:39:07.693Z,25.20
2018-07-07T18:41:36.082Z,25.10
2018-07-07T18:44:05.118Z,25.00
2018-07-07T18:46:33.425Z,25.00
2018-07-07T18:49:02.116Z,24.90
2018-07-07T18:51:30.497Z,24.90
2018-07-07T18:53:58.886Z,24.90
2018-07-07T18:56:27.294Z,24.80
2018-07-07T18:58:55.660Z,24.80
2018-07-07T19:01:24.212Z,24.80
2018-07-07T19:03:52.644Z,24.80
2018-07-07T19:06:21.012Z,24.70
2018-07-07T19:08:49.721Z,24.70
2018-07-07T19:11:19.965Z,24.50
2018-07-07T19:13:48.887Z,24.40
2018-07-07T19:16:18.363Z,24.30
2018-07-07T19:18:48.593Z,24.20
2018-07-07T19:21:22.863Z,24.10
2018-07-07T19:23:56.812Z,24.00
2018-07-07T19:26:55.813Z,24.00
2018-07-07T19:29:24.326Z,23.90
2018-07-07T19:31:58.601Z,23.70
2018-07-07T19:34:32.504Z,23.70
2018-07-07T19:37:06.369Z,23.60
2018-07-07T19:39:35.388Z,23.60
2018-07-07T19:42:03.825Z,23.60
2018-07-07T19:44:32.168Z,23.50
2018-07-07T19:47:00.807Z,23.30
2018-07-07T19:49:30.080Z,23.30
2018-07-07T19:51:59.793Z,23.20
2018-07-07T19:54:28.929Z,23.20
2018-07-07T19:56:57.816Z,23.20
2018-07-07T19:59:26.973Z,23.10
2018-07-07T20:01:55.725Z,23.00
2018-07-07T20:04:24.478Z,23.00
2018-07-07T20:06:52.824Z,23.00
2018-07-07T20:09:21.273Z,22.90
2018-07-07T20:11:49.934Z,22.80
2018-07-07T20:14:23.117Z,22.80
2018-07-07T20:17:04.445Z,22.70
2018-07-07T20:22:07.523Z,22.70
2018-07-07T20:24:37.197Z,22.60
2018-07-07T20:27:11.600Z,22.50
2018-07-07T20:29:39.977Z,22.50
2018-07-07T20:32:13.742Z,22.50
2018-07-07T20:34:42.125Z,22.40
2018-07-07T20:37:10.930Z,22.40
2018-07-07T20:39:39.794Z,22.40
2018-07-07T20:42:08.737Z,22.30
2018-07-07T20:44:38.035Z,22.30
2018-07-07T20:47:06.595Z,22.20
2018-07-07T20:49:35.013Z,22.10
2018-07-07T20:52:03.482Z,22.00
2018-07-07T20:54:31.872Z,21.90
2018-07-07T20:57:00.280Z,21.80
2018-07-07T20:59:28.693Z,21.70
2018-07-07T21:01:57.043Z,21.70
2018-07-07T21:04:25.445Z,21.60
2018-07-07T21:06:53.825Z,21.60
2018-07-07T21:09:22.201Z,21.50
2018-07-07T21:11:50.561Z,21.50
2018-07-07T21:14:18.936Z,21.40
2018-07-07T21:16:47.278Z,21.40
2018-07-07T21:19:15.633Z,21.40
2018-07-07T21:21:44.083Z,21.30
2018-07-07T21:24:12.440Z,21.40
2018-07-07T21:26:40.801Z,21.30
2018-07-07T21:29:09.165Z,21.30
2018-07-07T21:31:37.538Z,21.30
2018-07-07T21:34:06.118Z,21.20
2018-07-07T21:36:34.537Z,21.20
2018-07-07T21:39:03.071Z,21.10
2018-07-07T21:41:31.432Z,21.10
2018-07-07T21:43:59.785Z,21.10
2018-07-07T21:46:28.168Z,21.10
2018-07-07T21:48:56.518Z,20.90
2018-07-07T21:51:24.880Z,20.90
2018-07-07T21:53:53.353Z,20.90
2018-07-07T21:56:21.578Z,20.80
2018-07-07T21:58:54.129Z,20.70
2018-07-07T22:01:36.869Z,20.70
2018-07-07T22:04:10.794Z,20.60
2018-07-07T22:06:45.082Z,20.60
2018-07-07T22:09:13.427Z,20.60
2018-07-07T22:11:41.786Z,20.60
2018-07-07T22:14:10.113Z,20.60
2018-07-07T22:16:40.035Z,20.60
2018-07-07T22:19:08.368Z,20.50
2018-07-07T22:21:48.091Z,20.40
2018-07-07T22:24:16.417Z,20.40
2018-07-07T22:26:45.429Z,20.30
2018-07-07T22:29:13.768Z,20.20
2018-07-07T22:31:42.119Z,20.20
2018-07-07T22:34:10.456Z,20.10
2018-07-07T22:36:38.816Z,20.10
2018-07-07T22:39:07.130Z,20.00
2018-07-07T22:42:01.674Z,20.00
2018-07-07T22:44:30.346Z,19.90
2018-07-07T22:46:58.864Z,19.90
2018-07-07T22:49:27.888Z,19.90
2018-07-07T22:51:56.297Z,19.80
2018-07-07T22:54:24.653Z,19.70
2018-07-07T22:56:53.041Z,19.60
2018-07-07T22:59:21.387Z,19.60
2018-07-07T23:01:49.804Z,19.60
2018-07-07T23:04:18.162Z,19.50
2018-07-07T23:06:46.920Z,19.40
2018-07-07T23:09:16.237Z,19.30
2018-07-07T23:11:44.629Z,19.30
2018-07-07T23:14:12.977Z,19.30
2018-07-07T23:16:41.350Z,19.20
2018-07-07T23:19:09.857Z,19.10
2018-07-07T23:21:38.351Z,19.00
2018-07-07T23:24:06.824Z,18.80
2018-07-07T23:26:35.219Z,18.70
2018-07-07T23:29:04.197Z,18.70
2018-07-07T23:31:32.632Z,18.60
2018-07-07T23:34:02.537Z,18.50
2018-07-07T23:36:30.913Z,18.50
2018-07-07T23:38:59.462Z,18.50
2018-07-07T23:41:27.866Z,18.40
2018-07-07T23:43:56.222Z,18.30
2018-07-07T23:46:24.620Z,18.30
2018-07-07T23:48:52.963Z,18.20
2018-07-07T23:51:21.335Z,18.20
2018-07-07T23:53:49.704Z,18.20
2018-07-07T23:56:18.045Z,18.20
2018-07-07T23:58:46.553Z,18.20
